Time;durP1;ratioP1;P1;durP2;ratioP2;P2;SDS_P1;SDS_P2;PMS_P1;PMS_P2;Temp;Humidity;BMP_temperature;BMP_pressure;BME280_temperature;BME280_humidity;BME280_pressure;Samples;Min_cycle;Max_cycle;Signal;HPM_P1;HPM_P2
2023/07/14 00:01:18;;;;;;;1.98;1.50;;;27.30;38.70;;;;;;5149648;27;45432;-71
2023/07/14 00:03:45;;;;;;;2.50;1.45;;;27.30;38.60;;;;;;5149621;27;45367;-70
2023/07/14 00:06:12;;;;;;;2.88;1.85;;;27.30;38.70;;;;;;5150009;27;45312;-69
2023/07/14 00:08:40;;;;;;;3.10;1.60;;;27.30;38.70;;;;;;5149968;27;45406;-70
2023/07/14 00:11:11;;;;;;;1.17;1.10;;;27.30;38.70;;;;;;5149616;27;47753;-70
2023/07/14 00:13:38;;;;;;;2.15;1.67;;;27.30;38.80;;;;;;5149468;27;45279;-70
2023/07/14 00:16:10;;;;;;;1.95;1.40;;;27.30;38.80;;;;;;5149580;27;45313;-70
2023/07/14 00:18:37;;;;;;;2.53;1.40;;;27.20;38.70;;;;;;5148866;27;45460;-69
2023/07/14 00:21:04;;;;;;;1.35;1.25;;;27.20;38.70;;;;;;5149027;27;45376;-70
2023/07/14 00:23:30;;;;;;;3.28;1.50;;;27.20;38.70;;;;;;5149056;27;45334;-70
2023/07/14 00:25:58;;;;;;;1.98;1.38;;;27.20;38.80;;;;;;5149572;27;45426;-70
2023/07/14 00:28:26;;;;;;;2.03;1.30;;;27.20;38.80;;;;;;5149695;27;45249;-70
2023/07/14 00:30:52;;;;;;;1.42;1.30;;;27.20;38.90;;;;;;5149096;27;46399;-70
2023/07/14 00:33:20;;;;;;;1.55;1.20;;;27.10;38.90;;;;;;5149118;27;45279;-70
2023/07/14 00:35:47;;;;;;;1.50;1.00;;;27.10;38.80;;;;;;5149105;27;45334;-70
2023/07/14 00:38:14;;;;;;;2.80;1.35;;;27.10;38.90;;;;;;5149437;27;45387;-70
2023/07/14 00:40:42;;;;;;;2.20;1.40;;;27.10;38.90;;;;;;5149013;27;46383;-69
2023/07/14 00:43:13;;;;;;;3.10;1.63;;;27.10;39.00;;;;;;5149041;27;45347;-70
2023/07/14 00:45:41;;;;;;;1.85;1.55;;;27.00;38.90;;;;;;5149012;27;45382;-70
2023/07/14 00:48:10;;;;;;;1.33;1.23;;;27.00;39.00;;;;;;5149053;27;45306;-69
2023/07/14 00:50:39;;;;;;;1.45;1.20;;;27.00;39.00;;;;;;5148637;27;45302;-69
2023/07/14 00:53:07;;;;;;;3.28;1.40;;;27.00;39.10;;;;;;5148602;27;45409;-70
2023/07/14 00:55:40;;;;;;;2.47;1.10;;;27.00;39.10;;;;;;5148915;27;45280;-69
2023/07/14 00:58:16;;;;;;;1.10;1.00;;;27.00;39.10;;;;;;5148930;27;45480;-69
2023/07/14 01:01:03;;;;;;;1.38;1.27;;;26.90;39.10;;;;;;5148485;27;46388;-70
2023/07/14 01:03:30;;;;;;;2.08;1.30;;;26.90;39.10;;;;;;5148545;27;45289;-70
2023/07/14 01:05:57;;;;;;;2.67;1.40;;;26.90;39.20;;;;;;5148753;27;45401;-70
2023/07/14 01:08:24;;;;;;;1.33;1.15;;;26.90;39.20;;;;;;5148859;27;45497;-70
2023/07/14 01:10:50;;;;;;;1.42;0.95;;;26.80;39.20;;;;;;5148583;27;46430;-70
2023/07/14 01:13:17;;;;;;;1.30;1.15;;;26.80;39.20;;;;;;5148544;27;45394;-70
2023/07/14 01:15:44;;;;;;;1.33;1.20;;;26.80;39.20;;;;;;5148435;27;45331;-70
2023/07/14 01:18:13;;;;;;;2.55;1.30;;;26.80;39.20;;;;;;5148753;27;45707;-70
2023/07/14 01:20:39;;;;;;;1.40;1.10;;;26.80;39.20;;;;;;5147930;27;46673;-69
2023/07/14 01:23:14;;;;;;;2.72;1.20;;;26.70;39.20;;;;;;5148227;27;45376;-69
2023/07/14 01:25:47;;;;;;;2.95;1.42;;;26.70;39.30;;;;;;5148453;27;45311;-69
2023/07/14 01:28:16;;;;;;;1.50;1.25;;;26.70;39.30;;;;;;5148606;27;45279;-69
2023/07/14 01:30:43;;;;;;;1.30;1.20;;;26.70;39.30;;;;;;5148099;27;47334;-69
2023/07/14 01:33:12;;;;;;;1.30;1.10;;;26.70;39.40;;;;;;5148181;27;45330;-70
2023/07/14 01:35:41;;;;;;;1.75;1.20;;;26.60;39.30;;;;;;5148315;27;45263;-69
2023/07/14 01:38:09;;;;;;;2.58;1.27;;;26.60;39.40;;;;;;5148327;27;45321;-70
2023/07/14 01:40:36;;;;;;;1.52;1.30;;;26.60;39.40;;;;;;5147979;27;47057;-70
2023/07/14 01:43:04;;;;;;;3.53;1.13;;;26.60;39.40;;;;;;5148048;27;45283;-70
2023/07/14 01:45:37;;;;;;;1.73;1.30;;;26.60;39.40;;;;;;5148100;27;45438;-69
2023/07/14 01:48:04;;;;;;;1.48;1.00;;;26.50;39.40;;;;;;5148318;27;45373;-70
2023/07/14 01:50:31;;;;;;;0.85;0.85;;;26.50;39.40;;;;;;5147967;27;46370;-70
2023/07/14 01:53:00;;;;;;;2.60;1.30;;;26.50;39.40;;;;;;5147537;27;45307;-70
2023/07/14 01:55:31;;;;;;;1.35;1.08;;;26.50;39.50;;;;;;5147935;27;45257;-69
2023/07/14 01:57:58;;;;;;;1.17;0.95;;;26.50;39.50;;;;;;5148181;27;45410;-70
2023/07/14 02:00:25;;;;;;;1.25;1.13;;;26.50;39.50;;;;;;5147873;27;46497;-70
2023/07/14 02:02:59;;;;;;;1.83;0.80;;;26.40;39.50;;;;;;5147704;27;45384;-70
2023/07/14 02:05:28;;;;;;;1.35;1.10;;;26.40;39.50;;;;;;5147859;27;45282;-70
2023/07/14 02:07:55;;;;;;;1.13;1.00;;;26.40;39.60;;;;;;5148284;27;45209;-69
2023/07/14 02:10:22;;;;;;;1.08;1.00;;;26.40;39.60;;;;;;5147486;27;45346;-70
2023/07/14 02:12:49;;;;;;;1.10;1.00;;;26.40;39.60;;;;;;5147840;27;45261;-69
2023/07/14 02:15:18;;;;;;;1.98;0.95;;;26.40;39.60;;;;;;5147755;27;45321;-69
2023/07/14 02:17:45;;;;;;;1.25;1.10;;;26.40;39.70;;;;;;5147474;27;45485;-69
2023/07/14 02:20:17;;;;;;;2.42;1.42;;;26.30;39.60;;;;;;5147262;27;45356;-69
2023/07/14 02:22:43;;;;;;;0.80;0.80;;;26.30;39.70;;;;;;5147597;27;45400;-69
2023/07/14 02:25:10;;;;;;;1.15;1.10;;;26.30;39.60;;;;;;5147608;27;45388;-71
2023/07/14 02:27:37;;;;;;;1.92;1.00;;;26.30;39.70;;;;;;5148186;27;45377;-69
2023/07/14 02:30:10;;;;;;;1.13;1.02;;;26.30;39.70;;;;;;5147226;27;46400;-69
2023/07/14 02:32:40;;;;;;;1.20;1.10;;;26.30;39.70;;;;;;5147507;27;45304;-70
2023/07/14 02:35:13;;;;;;;1.13;1.00;;;26.30;39.70;;;;;;5147463;27;45373;-70
2023/07/14 02:38:00;;;;;;;1.42;1.00;;;26.20;39.70;;;;;;5147708;27;45323;-69
2023/07/14 02:40:27;;;;;;;1.30;1.10;;;26.20;39.70;;;;;;5148630;27;45419;-69
2023/07/14 02:42:54;;;;;;;1.02;1.00;;;26.20;39.80;;;;;;5151121;27;45336;-70
2023/07/14 02:45:21;;;;;;;1.40;1.10;;;26.20;39.70;;;;;;5150959;27;45297;-70
2023/07/14 02:47:48;;;;;;;0.98;0.98;;;26.20;39.80;;;;;;5151092;27;45415;-69
2023/07/14 02:50:16;;;;;;;1.55;0.98;;;26.10;39.70;;;;;;5150785;27;45374;-69
2023/07/14 02:52:43;;;;;;;1.30;1.10;;;26.10;39.80;;;;;;5150331;27;46362;-69
2023/07/14 02:55:10;;;;;;;1.00;1.00;;;26.10;40.30;;;;;;5150644;27;45372;-69
2023/07/14 02:57:38;;;;;;;1.15;1.02;;;26.10;39.80;;;;;;5150946;27;45317;-69
2023/07/14 03:00:07;;;;;;;1.67;1.10;;;26.10;39.80;;;;;;5150423;27;46382;-69
2023/07/14 03:02:34;;;;;;;0.77;0.75;;;26.00;39.80;;;;;;5150580;27;45186;-70
2023/07/14 03:05:01;;;;;;;1.42;1.23;;;26.00;39.80;;;;;;5150577;27;45292;-69
2023/07/14 03:07:32;;;;;;;0.70;0.70;;;26.00;39.80;;;;;;5150832;27;45582;-69
2023/07/14 03:09:59;;;;;;;1.13;1.00;;;26.00;39.80;;;;;;5150587;27;45512;-70
2023/07/14 03:12:28;;;;;;;1.83;0.90;;;26.00;39.80;;;;;;5150548;27;45323;-69
2023/07/14 03:14:54;;;;;;;0.82;0.82;;;26.00;39.80;;;;;;5150498;27;45284;-69
2023/07/14 03:17:21;;;;;;;1.73;0.80;;;26.00;39.90;;;;;;5150261;27;45299;-69
2023/07/14 03:19:48;;;;;;;1.50;1.00;;;25.90;39.80;;;;;;5150155;27;45790;-70
2023/07/14 03:22:15;;;;;;;1.27;0.82;;;25.90;39.90;;;;;;5150213;27;45322;-69
2023/07/14 03:24:43;;;;;;;1.00;0.90;;;25.90;40.00;;;;;;5150308;27;45408;-69
2023/07/14 03:27:10;;;;;;;1.40;0.80;;;25.90;40.00;;;;;;5150509;27;45310;-70
2023/07/14 03:29:37;;;;;;;0.80;0.75;;;25.90;40.00;;;;;;5150105;27;46411;-69
2023/07/14 03:32:05;;;;;;;1.15;1.05;;;25.90;40.00;;;;;;5150008;27;45377;-70
2023/07/14 03:34:32;;;;;;;1.25;1.02;;;25.80;40.00;;;;;;5150089;27;45315;-70
2023/07/14 03:36:59;;;;;;;0.98;0.98;;;25.80;40.00;;;;;;5150345;27;45391;-69
2023/07/14 03:39:27;;;;;;;0.95;0.95;;;25.80;40.10;;;;;;5149888;27;45282;-69
2023/07/14 03:41:56;;;;;;;0.93;0.80;;;25.80;40.10;;;;;;5150028;27;45438;-70
2023/07/14 03:44:23;;;;;;;1.52;0.98;;;25.80;40.10;;;;;;5149961;27;45339;-70
2023/07/14 03:46:50;;;;;;;1.15;0.90;;;25.80;40.10;;;;;;5150269;27;45411;-69
2023/07/14 03:49:17;;;;;;;1.02;0.90;;;25.80;40.10;;;;;;5149763;27;45657;-69
2023/07/14 03:51:43;;;;;;;1.48;1.20;;;25.70;40.00;;;;;;5148371;27;45209;-69
2023/07/14 03:54:11;;;;;;;1.05;1.00;;;25.70;40.10;;;;;;5149935;27;45338;-69
2023/07/14 03:56:37;;;;;;;1.55;1.08;;;25.70;40.10;;;;;;5150022;27;45353;-69
2023/07/14 03:59:07;;;;;;;1.27;1.10;;;25.70;40.10;;;;;;5149577;27;47494;-68
2023/07/14 04:01:34;;;;;;;1.60;0.90;;;25.70;40.10;;;;;;5149586;27;45276;-69
2023/07/14 04:04:00;;;;;;;1.48;1.10;;;25.70;40.20;;;;;;5149329;27;45308;-69
2023/07/14 04:06:28;;;;;;;2.65;0.90;;;25.60;40.20;;;;;;5149944;27;45359;-69
2023/07/14 04:08:57;;;;;;;0.85;0.85;;;25.60;40.20;;;;;;5149490;27;46387;-69
2023/07/14 04:11:24;;;;;;;3.72;1.00;;;25.60;40.20;;;;;;5149645;27;45463;-69
2023/07/14 04:13:51;;;;;;;1.08;1.00;;;25.60;40.20;;;;;;5149304;27;45344;-69
2023/07/14 04:16:23;;;;;;;1.67;0.88;;;25.60;40.20;;;;;;5149541;27;45450;-69
2023/07/14 04:18:50;;;;;;;2.55;1.20;;;25.60;40.20;;;;;;5149053;27;45365;-69
2023/07/14 04:21:17;;;;;;;1.00;0.90;;;25.60;40.30;;;;;;5149312;27;45312;-69
2023/07/14 04:23:43;;;;;;;1.10;1.00;;;25.60;40.30;;;;;;5149319;27;45303;-69
2023/07/14 04:26:12;;;;;;;1.08;0.98;;;25.50;40.20;;;;;;5149400;27;45334;-69
2023/07/14 04:28:39;;;;;;;0.90;0.80;;;25.50;40.30;;;;;;5148987;27;46645;-69
2023/07/14 04:31:06;;;;;;;1.02;1.00;;;25.50;40.30;;;;;;5149126;27;45315;-69
2023/07/14 04:33:34;;;;;;;0.90;0.90;;;25.50;40.20;;;;;;5148836;27;45315;-69
2023/07/14 04:36:01;;;;;;;1.00;0.90;;;25.50;40.30;;;;;;5149334;27;45355;-69
2023/07/14 04:38:28;;;;;;;1.73;0.95;;;25.50;40.30;;;;;;5149012;27;45303;-69
2023/07/14 04:40:55;;;;;;;1.80;1.00;;;25.50;40.30;;;;;;5149020;27;45293;-69
2023/07/14 04:43:22;;;;;;;0.90;0.85;;;25.50;40.30;;;;;;5149042;27;45572;-69
2023/07/14 04:45:51;;;;;;;0.82;0.80;;;25.50;40.30;;;;;;5149249;27;45262;-69
2023/07/14 04:48:19;;;;;;;0.90;0.90;;;25.50;40.40;;;;;;5148854;27;45130;-70
2023/07/14 04:50:47;;;;;;;0.80;0.80;;;25.40;40.30;;;;;;5148550;27;45302;-69
2023/07/14 04:53:15;;;;;;;0.82;0.80;;;25.40;40.30;;;;;;5148021;27;45323;-69
2023/07/14 04:55:42;;;;;;;1.42;0.90;;;25.40;40.30;;;;;;5149446;27;45308;-69
2023/07/14 04:58:09;;;;;;;1.05;0.88;;;25.40;40.40;;;;;;5148940;27;45335;-69
2023/07/14 05:00:37;;;;;;;1.80;1.00;;;25.40;40.30;;;;;;5148900;27;45353;-69
2023/07/14 05:03:04;;;;;;;1.88;1.13;;;25.40;40.40;;;;;;5148759;27;45316;-69
2023/07/14 05:05:31;;;;;;;1.00;0.90;;;25.40;40.40;;;;;;5149044;27;45406;-69
2023/07/14 05:08:00;;;;;;;0.80;0.80;;;25.40;40.40;;;;;;5148729;27;45564;-69
2023/07/14 05:10:27;;;;;;;1.55;0.93;;;25.40;40.40;;;;;;5148501;27;45369;-68
2023/07/14 05:12:54;;;;;;;2.05;0.90;;;25.40;40.30;;;;;;5148889;27;45341;-69
2023/07/14 05:15:21;;;;;;;1.10;1.02;;;25.40;40.30;;;;;;5148865;27;45328;-69
2023/07/14 05:17:48;;;;;;;0.88;0.88;;;25.40;40.30;;;;;;5148395;27;46396;-68
2023/07/14 05:20:16;;;;;;;1.25;0.90;;;25.40;40.30;;;;;;5148286;27;45377;-69
2023/07/14 05:22:44;;;;;;;1.05;0.95;;;25.40;40.30;;;;;;5148592;27;45313;-69
2023/07/14 05:25:12;;;;;;;2.35;1.00;;;25.40;40.30;;;;;;5148979;27;45554;-68
2023/07/14 05:27:39;;;;;;;1.30;0.77;;;25.40;40.30;;;;;;5148674;27;45530;-68
2023/07/14 05:30:08;;;;;;;0.82;0.82;;;25.40;40.30;;;;;;5148647;27;45362;-68
2023/07/14 05:32:35;;;;;;;0.88;0.88;;;25.40;40.20;;;;;;5148902;27;45243;-68
2023/07/14 05:35:02;;;;;;;1.73;0.90;;;25.40;40.60;;;;;;5148713;27;45477;-68
2023/07/14 05:37:29;;;;;;;0.98;0.98;;;25.40;40.30;;;;;;5148370;27;46235;-69
2023/07/14 05:39:56;;;;;;;0.82;0.75;;;25.40;40.20;;;;;;5147758;27;45295;-68
2023/07/14 05:42:24;;;;;;;1.52;0.90;;;25.40;40.30;;;;;;5148408;27;45410;-70
2023/07/14 05:44:51;;;;;;;0.95;0.95;;;25.40;40.30;;;;;;5148656;27;45407;-70
2023/07/14 05:47:18;;;;;;;1.00;0.98;;;25.40;40.30;;;;;;5148307;27;46429;-70
2023/07/14 05:49:45;;;;;;;1.08;0.88;;;25.40;40.30;;;;;;5148348;27;45375;-70
2023/07/14 05:52:12;;;;;;;0.98;0.88;;;25.40;40.30;;;;;;5148377;27;45400;-70
2023/07/14 05:54:39;;;;;;;1.33;0.90;;;25.40;40.30;;;;;;5148643;27;45399;-70
2023/07/14 05:57:06;;;;;;;0.70;0.70;;;25.40;40.30;;;;;;5148212;27;45310;-69
2023/07/14 05:59:34;;;;;;;1.75;1.05;;;25.40;40.30;;;;;;5148573;27;45252;-70
2023/07/14 06:02:09;;;;;;;2.53;0.90;;;25.40;40.40;;;;;;5145774;27;45501;-70
2023/07/14 06:04:36;;;;;;;1.23;1.00;;;25.40;40.40;;;;;;5148589;27;45359;-70
2023/07/14 06:07:03;;;;;;;1.20;1.10;;;25.40;40.40;;;;;;5148225;27;45640;-70
2023/07/14 06:09:33;;;;;;;2.15;0.93;;;25.40;40.30;;;;;;5148211;27;45340;-70
2023/07/14 06:12:02;;;;;;;1.35;1.20;;;25.40;40.30;;;;;;5148216;27;45312;-68
2023/07/14 06:14:29;;;;;;;0.95;0.93;;;25.40;40.40;;;;;;5148415;27;45415;-70
2023/07/14 06:16:57;;;;;;;2.05;0.98;;;25.40;40.40;;;;;;5151579;27;48063;-70
2023/07/14 06:19:24;;;;;;;1.60;1.00;;;25.50;40.50;;;;;;5151772;27;45267;-70
2023/07/14 06:21:51;;;;;;;1.00;1.00;;;25.40;40.40;;;;;;5151748;27;45342;-69
2023/07/14 06:24:18;;;;;;;0.90;0.90;;;25.40;40.40;;;;;;5151882;27;45339;-69
2023/07/14 06:26:44;;;;;;;1.73;0.80;;;25.50;40.50;;;;;;5151636;27;47757;-69
2023/07/14 06:29:12;;;;;;;1.75;1.20;;;25.50;40.50;;;;;;5150884;27;45364;-69
2023/07/14 06:31:39;;;;;;;1.15;0.93;;;25.50;40.50;;;;;;5151557;27;45317;-69
2023/07/14 06:34:07;;;;;;;1.00;0.90;;;25.50;40.50;;;;;;5151676;27;45369;-69
2023/07/14 06:36:34;;;;;;;1.15;0.70;;;25.50;40.50;;;;;;5151482;27;45488;-69
2023/07/14 06:39:03;;;;;;;1.45;1.10;;;25.50;40.50;;;;;;5148568;27;45310;-70
2023/07/14 06:41:30;;;;;;;0.82;0.82;;;25.50;40.50;;;;;;5151488;27;45340;-70
2023/07/14 06:43:57;;;;;;;1.10;0.93;;;25.50;40.50;;;;;;5151563;27;45422;-69
2023/07/14 06:46:24;;;;;;;0.85;0.85;;;25.50;40.50;;;;;;5151128;27;46648;-69
2023/07/14 06:48:51;;;;;;;1.83;1.00;;;25.50;40.40;;;;;;5151204;27;45281;-69
2023/07/14 06:51:19;;;;;;;1.20;1.00;;;25.50;40.30;;;;;;5151331;27;45326;-69
2023/07/14 06:53:46;;;;;;;1.33;1.10;;;25.50;40.40;;;;;;5151228;27;45450;-69
2023/07/14 06:56:13;;;;;;;1.35;0.93;;;25.60;40.40;;;;;;5151120;27;46502;-69
2023/07/14 06:58:40;;;;;;;2.72;1.00;;;25.60;40.40;;;;;;5148237;27;45307;-69
2023/07/14 07:01:07;;;;;;;0.90;0.90;;;25.60;40.40;;;;;;5151182;27;45349;-69
2023/07/14 07:03:34;;;;;;;1.60;0.90;;;25.60;40.40;;;;;;5151245;27;45296;-69
2023/07/14 07:06:01;;;;;;;1.02;0.90;;;25.60;40.30;;;;;;5150877;27;46399;-69
2023/07/14 07:08:29;;;;;;;0.95;0.95;;;25.70;40.40;;;;;;5150908;27;45316;-69
2023/07/14 07:10:56;;;;;;;1.65;1.08;;;25.70;40.30;;;;;;5151035;27;45338;-69
2023/07/14 07:13:22;;;;;;;0.70;0.70;;;25.70;40.30;;;;;;5150729;27;45252;-69
2023/07/14 07:15:49;;;;;;;1.17;0.90;;;25.70;40.30;;;;;;5150119;27;45294;-69
2023/07/14 07:18:19;;;;;;;1.10;1.00;;;25.80;40.30;;;;;;5151520;27;45422;-69
2023/07/14 07:20:46;;;;;;;0.82;0.73;;;25.80;40.30;;;;;;5151179;27;45145;-69
2023/07/14 07:23:12;;;;;;;1.20;0.95;;;25.80;40.30;;;;;;5151311;27;45298;-69
2023/07/14 07:25:47;;;;;;;1.80;1.00;;;25.80;40.30;;;;;;5150447;27;46370;-69
2023/07/14 07:28:14;;;;;;;1.75;0.70;;;25.80;40.30;;;;;;5150638;27;45256;-69
2023/07/14 07:30:40;;;;;;;0.95;0.80;;;25.80;40.20;;;;;;5150969;27;45357;-69
2023/07/14 07:33:07;;;;;;;1.55;0.98;;;25.90;40.30;;;;;;5150699;27;45315;-70
2023/07/14 07:35:37;;;;;;;1.42;0.90;;;25.90;40.30;;;;;;5150367;27;45725;-69
2023/07/14 07:38:04;;;;;;;0.82;0.80;;;25.90;40.30;;;;;;5150506;27;45260;-69
2023/07/14 07:40:31;;;;;;;0.80;0.80;;;25.90;40.30;;;;;;5150471;27;45291;-68
2023/07/14 07:43:01;;;;;;;1.15;1.05;;;25.90;40.30;;;;;;5150564;27;45396;-69
2023/07/14 07:45:27;;;;;;;0.90;0.88;;;25.90;40.80;;;;;;5150133;27;45666;-69
2023/07/14 07:47:54;;;;;;;1.00;0.90;;;25.90;40.20;;;;;;5150018;27;45175;-69
2023/07/14 07:50:21;;;;;;;1.05;0.90;;;25.90;40.30;;;;;;5150214;27;45389;-69
2023/07/14 07:52:48;;;;;;;1.25;0.90;;;25.90;40.30;;;;;;5149892;27;45458;-69
2023/07/14 07:55:15;;;;;;;1.55;1.02;;;26.00;40.30;;;;;;5149733;27;45420;-69
2023/07/14 07:57:42;;;;;;;1.40;1.02;;;26.00;40.30;;;;;;5149945;27;45372;-69
2023/07/14 08:00:11;;;;;;;1.95;1.10;;;26.00;40.30;;;;;;5150018;27;45397;-69
2023/07/14 08:02:41;;;;;;;1.13;1.10;;;26.00;40.30;;;;;;5149552;27;45367;-69
2023/07/14 08:05:08;;;;;;;0.80;0.80;;;26.00;40.30;;;;;;5148943;27;46729;-69
2023/07/14 08:07:35;;;;;;;1.13;1.00;;;26.00;40.30;;;;;;5149902;27;45199;-69
2023/07/14 08:10:03;;;;;;;1.90;1.00;;;26.10;40.30;;;;;;5149925;27;45343;-69
2023/07/14 08:12:29;;;;;;;0.80;0.75;;;26.10;40.30;;;;;;5149994;27;45584;-69
2023/07/14 08:14:57;;;;;;;1.38;0.90;;;26.10;40.30;;;;;;5149367;27;46444;-69
2023/07/14 08:17:26;;;;;;;1.15;0.80;;;26.20;40.40;;;;;;5149352;27;45428;-69
2023/07/14 08:19:53;;;;;;;1.17;0.90;;;26.20;40.30;;;;;;5149736;27;45473;-69
2023/07/14 08:22:20;;;;;;;0.82;0.82;;;26.20;40.30;;;;;;5149877;27;45296;-69
2023/07/14 08:24:47;;;;;;;0.98;0.93;;;26.20;40.30;;;;;;5149209;27;45327;-69
2023/07/14 08:27:14;;;;;;;0.73;0.70;;;26.30;40.30;;;;;;5149407;27;45214;-69
2023/07/14 08:29:41;;;;;;;1.05;0.98;;;26.30;40.40;;;;;;5149780;27;45382;-68
2023/07/14 08:32:09;;;;;;;1.05;0.90;;;26.30;40.40;;;;;;5149852;27;45355;-69
2023/07/14 08:34:37;;;;;;;1.42;1.00;;;26.30;40.50;;;;;;5149157;27;46268;-69
2023/07/14 08:37:04;;;;;;;0.82;0.82;;;26.30;40.40;;;;;;5149441;27;45179;-69
2023/07/14 08:39:32;;;;;;;2.08;0.98;;;26.40;40.50;;;;;;5148992;27;45338;-69
2023/07/14 08:42:01;;;;;;;0.77;0.77;;;26.40;40.50;;;;;;5146602;27;45571;-69
2023/07/14 08:44:44;;;;;;;1.13;1.08;;;26.40;40.50;;;;;;5149473;27;46360;-68
2023/07/14 08:47:14;;;;;;;1.05;0.90;;;26.40;40.40;;;;;;5149518;27;45242;-72
2023/07/14 08:49:47;;;;;;;3.67;1.10;;;26.40;40.70;;;;;;5149558;27;45359;-69
2023/07/14 08:52:18;;;;;;;0.77;0.77;;;26.40;40.60;;;;;;5149315;27;45125;-69
2023/07/14 08:54:46;;;;;;;1.98;1.10;;;26.50;40.60;;;;;;5149104;27;46446;-69
2023/07/14 08:57:14;;;;;;;3.08;1.10;;;26.50;40.70;;;;;;5148701;27;45271;-67
2023/07/14 08:59:41;;;;;;;0.90;0.90;;;26.50;40.70;;;;;;5148789;27;45334;-69
2023/07/14 09:02:18;;;;;;;2.13;0.98;;;26.60;40.70;;;;;;5149456;27;45256;-69
2023/07/14 09:04:49;;;;;;;3.10;0.90;;;26.60;40.70;;;;;;5148933;27;46806;-69
2023/07/14 09:07:17;;;;;;;0.80;0.80;;;26.60;40.70;;;;;;5149109;27;45325;-69
2023/07/14 09:09:44;;;;;;;1.00;0.80;;;26.60;40.70;;;;;;5149132;27;45388;-69
2023/07/14 09:12:16;;;;;;;0.90;0.90;;;26.70;40.70;;;;;;5149295;27;45346;-69
2023/07/14 09:14:51;;;;;;;1.30;1.10;;;26.70;40.80;;;;;;5148725;27;45469;-70
2023/07/14 09:17:22;;;;;;;1.20;0.82;;;26.70;40.80;;;;;;5148810;27;45302;-69
2023/07/14 09:20:17;;;;;;;1.35;0.85;;;26.70;40.80;;;;;;5148904;27;45269;-70
2023/07/14 09:22:46;;;;;;;1.00;0.88;;;26.80;40.80;;;;;;5148696;27;45264;-69
2023/07/14 09:25:18;;;;;;;2.05;1.02;;;26.80;40.70;;;;;;5148522;27;45361;-69
2023/07/14 09:27:44;;;;;;;1.02;0.90;;;26.80;40.70;;;;;;5148642;27;45269;-69
2023/07/14 09:30:15;;;;;;;0.90;0.90;;;26.90;40.70;;;;;;5148829;27;45313;-69
2023/07/14 09:32:42;;;;;;;1.20;0.90;;;26.90;40.70;;;;;;5147964;27;45302;-69
2023/07/14 09:35:17;;;;;;;3.17;1.02;;;26.90;40.70;;;;;;5148388;27;45272;-70
2023/07/14 09:37:46;;;;;;;1.40;0.90;;;26.90;40.60;;;;;;5148618;27;45318;-69
2023/07/14 09:40:18;;;;;;;1.33;0.95;;;27.00;40.70;;;;;;5148641;27;45438;-69
2023/07/14 09:42:45;;;;;;;1.10;1.00;;;27.00;40.70;;;;;;5148807;27;45456;-69
2023/07/14 09:45:17;;;;;;;1.08;1.00;;;27.00;40.70;;;;;;5148360;27;46411;-69
2023/07/14 09:47:44;;;;;;;1.23;1.13;;;27.00;40.70;;;;;;5148551;27;45329;-70
2023/07/14 09:50:14;;;;;;;1.75;0.82;;;27.10;40.70;;;;;;5149728;27;45150;-70
2023/07/14 09:52:49;;;;;;;1.92;0.88;;;27.10;40.70;;;;;;5152302;27;45420;-70
2023/07/14 09:55:19;;;;;;;2.30;0.95;;;27.10;40.70;;;;;;5151887;27;46661;-69
2023/07/14 09:57:46;;;;;;;1.67;1.00;;;27.20;40.70;;;;;;5152002;27;45294;-70
2023/07/14 10:00:19;;;;;;;1.40;0.93;;;27.20;40.60;;;;;;5151897;27;45427;-69
2023/07/14 10:02:49;;;;;;;0.95;0.95;;;27.20;40.60;;;;;;5151873;27;45978;-70
2023/07/14 10:05:34;;;;;;;3.15;1.02;;;27.30;40.60;;;;;;5152133;27;47325;-70
2023/07/14 10:08:03;;;;;;;1.67;1.00;;;27.30;41.20;;;;;;5152030;27;45440;-70
2023/07/14 10:10:30;;;;;;;1.25;1.15;;;27.30;40.70;;;;;;5152361;27;45286;-70
2023/07/14 10:12:57;;;;;;;2.05;1.10;;;27.40;40.90;;;;;;5152289;27;45361;-70
2023/07/14 10:15:30;;;;;;;1.10;1.00;;;27.40;40.80;;;;;;5152176;27;45469;-69
2023/07/14 10:17:59;;;;;;;1.52;1.30;;;27.50;40.80;;;;;;5151728;27;45378;-69
2023/07/14 10:20:27;;;;;;;2.30;1.40;;;27.50;40.70;;;;;;5151654;27;45376;-68
2023/07/14 10:22:56;;;;;;;2.88;1.17;;;27.50;40.60;;;;;;5151935;27;45291;-69
2023/07/14 10:25:23;;;;;;;1.20;1.10;;;27.60;40.60;;;;;;5151107;27;46401;-70
2023/07/14 10:27:56;;;;;;;2.05;1.10;;;27.60;40.60;;;;;;5150988;27;45357;-68
2023/07/14 10:30:36;;;;;;;1.30;1.20;;;27.60;40.60;;;;;;5151357;27;45368;-70
2023/07/14 10:33:03;;;;;;;1.13;1.02;;;27.70;40.70;;;;;;5151267;27;45330;-70
2023/07/14 10:35:31;;;;;;;1.55;1.17;;;27.70;40.70;;;;;;5151508;27;46705;-69
2023/07/14 10:38:01;;;;;;;1.20;1.10;;;27.70;40.60;;;;;;5151746;27;45371;-70
2023/07/14 10:40:28;;;;;;;1.77;1.17;;;27.80;40.60;;;;;;5151450;27;45285;-68
2023/07/14 10:42:57;;;;;;;0.98;0.93;;;27.80;40.50;;;;;;5151428;27;45251;-71
2023/07/14 10:45:24;;;;;;;1.20;1.10;;;27.90;40.60;;;;;;5150201;27;45310;-70
2023/07/14 10:47:52;;;;;;;1.27;1.15;;;27.90;40.60;;;;;;5144801;27;45484;-69
2023/07/14 10:50:21;;;;;;;1.30;1.20;;;28.00;40.60;;;;;;5142337;27;45248;-69
2023/07/14 10:52:50;;;;;;;2.08;1.13;;;28.00;40.50;;;;;;5150906;27;45540;-70
2023/07/14 10:55:20;;;;;;;1.38;1.13;;;28.10;40.50;;;;;;5150607;27;46389;-71
2023/07/14 10:57:48;;;;;;;1.73;1.30;;;28.10;40.30;;;;;;5150916;27;45228;-69
2023/07/14 11:00:26;;;;;;;0.90;0.90;;;28.10;40.30;;;;;;5151030;27;45398;-69
2023/07/14 11:03:00;;;;;;;1.95;1.30;;;28.20;40.40;;;;;;5151422;27;45505;-69
2023/07/14 11:05:27;;;;;;;1.88;1.30;;;28.20;40.50;;;;;;5150705;27;45383;-69
2023/07/14 11:07:54;;;;;;;1.13;0.90;;;28.30;40.60;;;;;;5150775;27;45355;-69
2023/07/14 11:10:32;;;;;;;1.05;1.00;;;28.30;40.60;;;;;;5150992;27;45310;-70
2023/07/14 11:13:04;;;;;;;1.30;1.20;;;28.30;40.50;;;;;;5150840;27;45319;-70
2023/07/14 11:15:35;;;;;;;1.25;1.23;;;28.30;40.60;;;;;;5150575;27;45471;-69
2023/07/14 11:18:06;;;;;;;1.35;1.20;;;28.40;40.70;;;;;;5150487;27;45469;-70
2023/07/14 11:20:35;;;;;;;1.85;1.00;;;28.40;40.60;;;;;;5150493;27;45336;-71
2023/07/14 11:23:11;;;;;;;2.10;1.17;;;28.50;40.70;;;;;;5150917;27;45502;-71
2023/07/14 11:25:42;;;;;;;1.83;1.13;;;28.50;40.70;;;;;;5150590;27;46549;-72
2023/07/14 11:28:17;;;;;;;1.30;1.20;;;28.60;40.70;;;;;;5150184;27;45351;-70
2023/07/14 11:30:46;;;;;;;1.90;1.20;;;28.60;40.60;;;;;;5151055;27;45380;-69
2023/07/14 11:33:15;;;;;;;4.57;1.10;;;28.70;40.80;;;;;;5150711;27;45307;-71
2023/07/14 11:35:45;;;;;;;2.38;1.02;;;28.70;41.10;;;;;;5150865;27;46376;-71
2023/07/14 11:38:20;;;;;;;4.47;1.25;;;28.70;41.20;;;;;;5150639;27;45327;-71
2023/07/14 11:40:48;;;;;;;1.20;1.10;;;28.70;41.90;;;;;;5150637;27;45329;-71
2023/07/14 11:43:19;;;;;;;1.48;1.20;;;28.80;41.00;;;;;;5150953;27;45318;-71
2023/07/14 11:45:47;;;;;;;1.70;1.20;;;28.80;40.90;;;;;;5150194;27;45496;-71
2023/07/14 11:48:23;;;;;;;2.22;1.20;;;28.80;40.80;;;;;;5150224;27;45405;-69
2023/07/14 11:51:03;;;;;;;1.40;1.30;;;28.80;40.70;;;;;;5150568;27;45205;-69
2023/07/14 11:53:33;;;;;;;2.03;1.13;;;28.90;40.70;;;;;;5150194;27;45389;-71
2023/07/14 11:56:14;;;;;;;1.00;1.00;;;28.90;40.70;;;;;;5150047;27;45463;-71
2023/07/14 11:58:41;;;;;;;1.63;1.20;;;28.90;40.60;;;;;;5150006;27;45406;-71
2023/07/14 12:01:15;;;;;;;3.70;1.25;;;29.00;40.60;;;;;;5149712;27;45369;-69
2023/07/14 12:03:47;;;;;;;1.50;1.20;;;29.00;40.50;;;;;;5149342;27;45392;-71
2023/07/14 12:06:23;;;;;;;2.38;1.30;;;29.00;41.10;;;;;;5148997;27;45698;-73
2023/07/14 12:09:00;;;;;;;2.22;1.20;;;29.00;40.60;;;;;;5148069;27;45446;-69
2023/07/14 12:11:29;;;;;;;1.65;1.20;;;29.00;40.80;;;;;;5149232;27;45299;-69
2023/07/14 12:13:56;;;;;;;1.73;1.00;;;29.10;40.70;;;;;;5148379;27;45355;-69
2023/07/14 12:16:24;;;;;;;1.20;1.13;;;29.10;40.50;;;;;;5148960;27;45303;-68
2023/07/14 12:19:02;;;;;;;1.23;1.05;;;29.20;40.50;;;;;;5149697;27;45382;-69
2023/07/14 12:21:33;;;;;;;1.17;1.10;;;29.20;40.30;;;;;;5149302;27;45325;-69
2023/07/14 12:24:02;;;;;;;2.45;1.10;;;29.30;40.30;;;;;;5149332;27;45416;-69
2023/07/14 12:26:33;;;;;;;1.75;1.23;;;29.30;40.20;;;;;;5149736;27;45312;-71
2023/07/14 12:29:01;;;;;;;1.40;1.20;;;29.40;40.10;;;;;;5149536;27;45467;-70
2023/07/14 12:31:34;;;;;;;1.88;1.60;;;29.40;40.10;;;;;;5149441;27;45332;-70
2023/07/14 12:34:01;;;;;;;4.65;1.65;;;29.40;40.00;;;;;;5149447;27;45499;-69
2023/07/14 12:36:29;;;;;;;1.23;1.13;;;29.40;39.50;;;;;;5149200;27;45377;-71
2023/07/14 12:38:56;;;;;;;1.88;1.20;;;29.50;39.80;;;;;;5149299;27;45293;-71
2023/07/14 12:41:24;;;;;;;1.58;1.23;;;29.50;39.60;;;;;;5149079;27;45314;-72
2023/07/14 12:43:53;;;;;;;1.98;1.30;;;29.50;39.40;;;;;;5149125;27;45441;-71
2023/07/14 12:46:23;;;;;;;3.10;1.50;;;29.50;39.30;;;;;;5148704;27;45313;-72
2023/07/14 12:48:50;;;;;;;1.55;1.33;;;29.60;39.20;;;;;;5148971;27;45377;-71
2023/07/14 12:51:18;;;;;;;2.72;1.30;;;29.60;39.20;;;;;;5149089;27;45407;-72
2023/07/14 12:53:49;;;;;;;3.00;1.70;;;29.60;39.40;;;;;;5149049;27;45249;-71
2023/07/14 12:56:16;;;;;;;1.73;1.40;;;29.60;39.00;;;;;;5148823;27;45397;-72